createdAt,value
2023-03-06T00:00:19.820Z,64.18
2023-03-06T00:02:47.057Z,64.26
2023-03-06T00:05:15.629Z,64.48
2023-03-06T00:07:42.865Z,64.43
2023-03-06T00:10:14.527Z,64.62
2023-03-06T00:12:41.348Z,64.67
2023-03-06T00:15:08.890Z,64.92
2023-03-06T00:17:36.359Z,65.20
2023-03-06T00:20:04.885Z,64.57
2023-03-06T00:22:31.885Z,65.00
2023-03-06T00:24:58.738Z,65.43
2023-03-06T00:27:26.459Z,65.13
2023-03-06T00:29:57.684Z,65.13
2023-03-06T00:32:25.311Z,65.25
2023-03-06T00:34:53.439Z,64.98
2023-03-06T00:37:21.083Z,65.26
2023-03-06T00:39:49.854Z,65.11
2023-03-06T00:42:18.495Z,65.08
2023-03-06T00:44:45.910Z,65.23
2023-03-06T00:47:13.714Z,65.80
2023-03-06T00:49:40.636Z,65.25
2023-03-06T00:52:07.517Z,65.72
2023-03-06T00:54:34.281Z,65.50
2023-03-06T00:57:01.293Z,65.67
2023-03-06T00:59:28.084Z,65.27
2023-03-06T01:01:55.503Z,65.57
2023-03-06T01:04:23.002Z,65.83
2023-03-06T01:06:50.242Z,65.78
2023-03-06T01:09:17.155Z,65.92
2023-03-06T01:11:43.994Z,65.54
2023-03-06T01:14:11.411Z,66.00
2023-03-06T01:16:38.313Z,65.67
2023-03-06T01:19:05.090Z,66.52
2023-03-06T01:21:32.479Z,66.27
2023-03-06T01:23:59.444Z,66.93
2023-03-06T01:26:26.452Z,66.25
2023-03-06T01:28:53.270Z,66.14
2023-03-06T01:31:20.292Z,66.73
2023-03-06T01:33:47.096Z,66.50
2023-03-06T01:36:14.348Z,67.10
2023-03-06T01:38:41.373Z,66.44
2023-03-06T01:41:10.920Z,66.74
2023-03-06T01:43:39.697Z,66.77
2023-03-06T01:46:42.017Z,66.89
2023-03-06T01:49:31.179Z,67.06
2023-03-06T01:52:02.976Z,66.68
2023-03-06T01:54:35.975Z,66.63
2023-03-06T01:57:12.015Z,67.40
2023-03-06T01:59:40.255Z,67.01
2023-03-06T02:02:09.887Z,67.35
2023-03-06T02:04:39.624Z,67.22
2023-03-06T02:07:08.026Z,67.27
2023-03-06T02:09:36.677Z,67.78
2023-03-06T02:12:07.770Z,67.78
2023-03-06T02:14:34.973Z,67.67
2023-03-06T02:17:02.568Z,67.36
2023-03-06T02:20:09.195Z,67.78
2023-03-06T02:23:03.939Z,67.85
2023-03-06T02:25:51.654Z,67.99
2023-03-06T02:28:22.896Z,67.58
2023-03-06T02:30:52.116Z,67.69
2023-03-06T02:33:23.323Z,67.87
2023-03-06T02:35:53.574Z,67.98
2023-03-06T02:38:24.061Z,67.73
2023-03-06T02:40:52.361Z,68.34
2023-03-06T02:43:23.561Z,67.95
2023-03-06T02:45:51.482Z,67.99
2023-03-06T02:48:19.462Z,68.47
2023-03-06T02:50:47.181Z,67.95
2023-03-06T02:53:16.081Z,67.77
2023-03-06T02:55:43.294Z,68.17
2023-03-06T02:58:10.440Z,68.03
2023-03-06T03:00:40.109Z,68.83
2023-03-06T03:03:09.977Z,68.49
2023-03-06T03:05:36.813Z,68.41
2023-03-06T03:08:11.496Z,68.75
2023-03-06T03:10:38.639Z,68.56
2023-03-06T03:13:06.394Z,68.41
2023-03-06T03:15:35.201Z,68.40
2023-03-06T03:18:02.051Z,68.79
2023-03-06T03:20:29.019Z,68.76
2023-03-06T03:22:56.233Z,68.44
2023-03-06T03:25:25.574Z,68.83
2023-03-06T03:27:55.423Z,68.30
2023-03-06T03:30:22.756Z,68.81
2023-03-06T03:32:50.254Z,69.03
2023-03-06T03:35:17.338Z,68.78
2023-03-06T03:37:44.261Z,68.88
2023-03-06T03:40:11.997Z,68.78
2023-03-06T03:42:38.917Z,69.24
2023-03-06T03:45:07.108Z,69.18
2023-03-06T03:47:34.123Z,69.30
2023-03-06T03:50:00.967Z,69.13
2023-03-06T03:52:27.850Z,68.94
2023-03-06T03:54:55.000Z,69.40
2023-03-06T03:57:21.976Z,69.48
2023-03-06T03:59:51.963Z,69.01
2023-03-06T04:02:26.494Z,69.70
2023-03-06T04:05:02.805Z,69.49
2023-03-06T04:07:29.961Z,69.22
2023-03-06T04:09:57.103Z,69.59
2023-03-06T04:12:24.754Z,69.31
2023-03-06T04:14:51.802Z,69.47
2023-03-06T04:17:19.215Z,69.33
2023-03-06T04:19:46.118Z,69.54
2023-03-06T04:22:13.116Z,69.99
2023-03-06T04:24:41.659Z,69.58
2023-03-06T04:27:09.166Z,69.43
2023-03-06T04:29:36.189Z,69.77
2023-03-06T04:32:03.396Z,69.41
2023-03-06T04:34:30.396Z,69.92
2023-03-06T04:36:57.378Z,70.17
2023-03-06T04:39:24.338Z,69.66
2023-03-06T04:41:51.355Z,70.02
2023-03-06T04:44:18.336Z,69.67
2023-03-06T04:46:45.197Z,70.26
2023-03-06T04:49:12.076Z,70.30
2023-03-06T04:51:38.967Z,70.04
2023-03-06T04:54:06.070Z,69.86
2023-03-06T04:56:34.499Z,70.32
2023-03-06T04:59:02.624Z,70.10
2023-03-06T05:01:29.577Z,69.97
2023-03-06T05:03:56.325Z,70.00
2023-03-06T05:06:23.177Z,70.04
2023-03-06T05:08:50.135Z,70.05
2023-03-06T05:11:17.014Z,69.92
2023-03-06T05:13:43.920Z,70.04
2023-03-06T05:16:10.997Z,70.14
2023-03-06T05:18:37.973Z,70.14
2023-03-06T05:21:06.082Z,70.25
2023-03-06T05:23:34.742Z,70.15
2023-03-06T05:26:01.696Z,70.12
2023-03-06T05:28:28.768Z,70.28
2023-03-06T05:30:56.474Z,70.33
2023-03-06T05:33:23.613Z,70.51
2023-03-06T05:35:50.712Z,70.46
2023-03-06T05:38:17.637Z,70.43
2023-03-06T05:40:45.343Z,70.40
2023-03-06T05:43:12.436Z,70.52
2023-03-06T05:45:40.061Z,70.61
2023-03-06T05:48:08.076Z,70.69
2023-03-06T05:50:34.924Z,70.61
2023-03-06T05:53:01.842Z,70.51
2023-03-06T05:55:29.118Z,70.68
2023-03-06T05:57:56.041Z,70.76
2023-03-06T06:00:23.454Z,70.85
2023-03-06T06:02:50.373Z,71.20
2023-03-06T06:05:17.456Z,70.53
2023-03-06T06:07:44.347Z,70.63
2023-03-06T06:10:11.838Z,70.50
2023-03-06T06:12:39.469Z,70.94
2023-03-06T06:15:07.071Z,70.86
2023-03-06T06:17:33.999Z,70.61
2023-03-06T06:20:00.903Z,70.97
2023-03-06T06:22:27.846Z,70.84
2023-03-06T06:24:54.938Z,71.06
2023-03-06T06:27:21.768Z,70.42
2023-03-06T06:29:52.144Z,70.88
2023-03-06T06:32:19.149Z,70.36
2023-03-06T06:34:46.557Z,71.21
2023-03-06T06:37:13.539Z,70.92
2023-03-06T06:39:40.942Z,70.76
2023-03-06T06:42:29.883Z,71.11
2023-03-06T06:44:56.848Z,70.78
2023-03-06T06:47:25.324Z,71.18
2023-03-06T06:49:54.063Z,70.81
2023-03-06T06:52:21.071Z,70.65
2023-03-06T06:54:48.221Z,70.78
2023-03-06T06:57:15.877Z,70.86
2023-03-06T06:59:42.774Z,70.49
2023-03-06T07:02:14.316Z,71.11
2023-03-06T07:04:52.777Z,70.60
2023-03-06T07:07:27.705Z,70.56
2023-03-06T07:09:55.880Z,70.79
2023-03-06T07:12:22.909Z,70.62
2023-03-06T07:14:50.090Z,70.82
2023-03-06T07:17:17.054Z,70.77
2023-03-06T07:19:43.997Z,70.46
2023-03-06T07:22:10.932Z,70.71
2023-03-06T07:24:37.955Z,70.51
2023-03-06T07:27:05.031Z,70.74
2023-03-06T07:29:34.079Z,70.37
2023-03-06T07:32:01.026Z,70.52
2023-03-06T07:34:28.012Z,70.30
2023-03-06T07:36:55.131Z,70.46
2023-03-06T07:39:22.121Z,70.39
2023-03-06T07:41:49.074Z,70.22
2023-03-06T07:44:16.037Z,69.99
2023-03-06T07:46:43.130Z,70.13
2023-03-06T07:49:10.148Z,70.17
2023-03-06T07:51:37.185Z,70.06
2023-03-06T07:54:04.155Z,69.70
2023-03-06T07:56:31.142Z,69.62
2023-03-06T07:58:58.076Z,69.58
2023-03-06T08:01:25.180Z,69.46
2023-03-06T08:03:52.291Z,69.34
2023-03-06T08:06:23.023Z,69.41
2023-03-06T08:08:51.267Z,69.69
2023-03-06T08:11:20.717Z,69.01
2023-03-06T08:13:48.908Z,68.67
2023-03-06T08:16:17.861Z,68.69
2023-03-06T08:18:46.356Z,68.95
2023-03-06T08:21:18.077Z,68.41
2023-03-06T08:23:46.511Z,68.40
2023-03-06T08:26:16.384Z,68.07
2023-03-06T08:28:43.889Z,68.00
2023-03-06T08:31:14.063Z,68.24
2023-03-06T08:33:41.512Z,67.98
2023-03-06T08:36:08.712Z,67.91
2023-03-06T08:38:35.664Z,67.40
2023-03-06T08:41:02.650Z,67.38
2023-03-06T08:43:29.930Z,67.62
2023-03-06T08:45:58.687Z,67.09
2023-03-06T08:48:25.801Z,67.36
2023-03-06T08:50:53.390Z,66.75
2023-03-06T08:53:22.727Z,66.69
2023-03-06T08:55:55.045Z,66.70
2023-03-06T08:58:22.010Z,66.67
2023-03-06T09:00:49.110Z,66.73
2023-03-06T09:03:16.089Z,66.28
2023-03-06T09:05:43.258Z,66.48
2023-03-06T09:08:10.208Z,66.36
2023-03-06T09:10:37.274Z,65.98
2023-03-06T09:13:04.267Z,65.93
2023-03-06T09:15:31.291Z,65.69
2023-03-06T09:17:58.372Z,65.60
2023-03-06T09:20:25.288Z,65.71
2023-03-06T09:22:52.313Z,65.42
2023-03-06T09:25:21.929Z,65.47
2023-03-06T09:28:01.853Z,64.98
2023-03-06T09:30:35.785Z,65.20
2023-03-06T09:33:02.617Z,65.02
2023-03-06T09:35:29.601Z,64.72
2023-03-06T09:37:56.792Z,64.17
2023-03-06T09:40:34.455Z,64.01
2023-03-06T09:43:01.614Z,63.88
2023-03-06T09:45:37.455Z,64.25
2023-03-06T09:48:15.430Z,64.18
2023-03-06T09:51:18.092Z,63.64
2023-03-06T09:54:13.452Z,63.61
2023-03-06T09:56:46.790Z,63.62
2023-03-06T09:59:19.721Z,63.28
2023-03-06T10:01:58.997Z,63.32
2023-03-06T10:04:52.131Z,63.23
2023-03-06T10:07:22.607Z,62.99
2023-03-06T10:09:54.473Z,62.72
2023-03-06T10:12:24.793Z,62.86
2023-03-06T10:15:16.707Z,62.55
2023-03-06T10:17:44.178Z,62.41
2023-03-06T10:20:35.373Z,62.17
2023-03-06T10:23:36.350Z,62.07
2023-03-06T10:26:11.222Z,62.11
2023-03-06T10:28:43.175Z,62.09
2023-03-06T10:31:21.328Z,61.58
2023-03-06T10:34:26.174Z,61.90
2023-03-06T10:36:54.552Z,61.72
2023-03-06T10:39:22.865Z,61.44
2023-03-06T10:41:52.875Z,61.13
2023-03-06T10:44:21.269Z,61.23
2023-03-06T10:46:51.713Z,61.22
2023-03-06T10:49:30.128Z,60.90
2023-03-06T10:52:01.124Z,60.86
2023-03-06T10:54:30.498Z,60.96
2023-03-06T10:56:57.543Z,60.63
2023-03-06T10:59:28.460Z,60.22
2023-03-06T11:02:16.695Z,60.07
2023-03-06T11:04:48.078Z,60.26
2023-03-06T11:07:23.498Z,60.01
2023-03-06T11:10:17.282Z,60.33
2023-03-06T11:12:44.652Z,59.94
2023-03-06T11:15:22.350Z,59.77
2023-03-06T11:17:54.569Z,59.79
2023-03-06T11:20:38.411Z,59.91
2023-03-06T11:23:44.742Z,59.90
2023-03-06T11:26:30.295Z,59.58
2023-03-06T11:29:38.879Z,59.33
2023-03-06T11:32:24.420Z,59.24
2023-03-06T11:35:13.734Z,59.15
2023-03-06T11:37:54.145Z,59.17
2023-03-06T11:40:27.167Z,59.25
2023-03-06T11:43:12.126Z,59.25
2023-03-06T11:45:45.512Z,58.87
2023-03-06T11:48:22.390Z,58.76
2023-03-06T11:50:51.920Z,58.79
2023-03-06T11:53:20.706Z,58.39
2023-03-06T11:56:02.509Z,58.44
2023-03-06T11:59:09.270Z,58.48
2023-03-06T12:01:40.896Z,58.15
2023-03-06T12:04:34.513Z,58.26
2023-03-06T12:07:19.372Z,58.20
2023-03-06T12:10:11.057Z,58.10
2023-03-06T12:13:04.289Z,57.83
2023-03-06T12:16:10.990Z,57.78
2023-03-06T12:19:02.331Z,57.91
2023-03-06T12:22:09.390Z,57.53
2023-03-06T12:25:18.823Z,57.50
2023-03-06T12:28:19.576Z,57.62
2023-03-06T12:31:26.496Z,57.32
2023-03-06T12:34:23.379Z,57.07
2023-03-06T12:37:07.400Z,57.11
2023-03-06T12:40:07.140Z,56.73
2023-03-06T12:43:00.997Z,57.07
2023-03-06T12:45:34.276Z,56.83
2023-03-06T12:48:02.202Z,56.64
2023-03-06T12:50:32.201Z,56.83
2023-03-06T12:53:01.926Z,56.76
2023-03-06T12:55:32.532Z,56.61
2023-03-06T12:58:39.196Z,56.41
2023-03-06T13:01:34.313Z,56.22
2023-03-06T13:04:25.834Z,56.15
2023-03-06T13:07:22.937Z,56.16
2023-03-06T13:10:14.503Z,56.14
2023-03-06T13:12:58.139Z,55.85
2023-03-06T13:15:43.067Z,55.83
2023-03-06T13:18:50.997Z,55.52
2023-03-06T13:21:46.018Z,55.71
2023-03-06T13:24:22.876Z,55.76
2023-03-06T13:27:11.400Z,55.73
2023-03-06T13:29:49.943Z,55.72
2023-03-06T13:32:20.057Z,55.53
2023-03-06T13:34:49.292Z,56.01
2023-03-06T13:37:36.686Z,56.16
2023-03-06T13:40:14.450Z,55.87
2023-03-06T13:43:20.010Z,55.88
2023-03-06T13:45:48.909Z,56.16
2023-03-06T13:48:43.827Z,56.02
2023-03-06T13:51:24.490Z,56.12
2023-03-06T13:54:20.847Z,56.48
2023-03-06T13:57:10.915Z,56.40
2023-03-06T14:00:17.751Z,56.12
2023-03-06T14:03:25.207Z,56.52
2023-03-06T14:05:52.468Z,56.44
2023-03-06T14:08:33.352Z,56.58
2023-03-06T14:11:05.489Z,56.55
2023-03-06T14:13:45.439Z,56.38
2023-03-06T14:16:22.972Z,56.87
2023-03-06T14:18:52.086Z,56.52
2023-03-06T14:21:40.568Z,56.60
2023-03-06T14:24:16.448Z,56.87
2023-03-06T14:26:46.159Z,56.77
2023-03-06T14:29:30.125Z,56.84
2023-03-06T14:31:59.666Z,56.60
2023-03-06T14:34:29.490Z,56.64
2023-03-06T14:37:00.437Z,56.74
2023-03-06T14:39:36.746Z,56.59
2023-03-06T14:42:19.585Z,56.52
2023-03-06T14:44:48.561Z,56.48
2023-03-06T14:47:27.253Z,56.47
2023-03-06T14:50:21.923Z,56.09
2023-03-06T14:52:57.454Z,56.50
2023-03-06T14:55:26.457Z,56.29
2023-03-06T14:57:57.951Z,56.00
2023-03-06T15:00:30.674Z,55.96
2023-03-06T15:02:57.938Z,55.88
2023-03-06T15:05:28.978Z,56.33
2023-03-06T15:07:59.757Z,56.35
2023-03-06T15:10:32.751Z,56.01
2023-03-06T15:13:11.494Z,55.79
2023-03-06T15:15:38.629Z,55.99
2023-03-06T15:18:28.771Z,56.16
2023-03-06T15:21:07.996Z,56.02
2023-03-06T15:23:38.250Z,56.22
2023-03-06T15:26:28.992Z,56.07
2023-03-06T15:29:09.311Z,56.17
2023-03-06T15:31:39.266Z,55.56
2023-03-06T15:34:18.796Z,55.72
2023-03-06T15:36:54.406Z,55.58
2023-03-06T15:39:36.281Z,55.92
2023-03-06T15:42:20.342Z,55.84
2023-03-06T15:44:53.249Z,55.97
2023-03-06T15:47:21.398Z,55.91
2023-03-06T15:49:52.153Z,56.02
2023-03-06T15:52:20.590Z,55.97
2023-03-06T15:54:47.863Z,55.70
2023-03-06T15:57:24.492Z,55.50
2023-03-06T15:59:51.800Z,55.63
2023-03-06T16:02:21.416Z,55.78
2023-03-06T16:04:49.430Z,55.95
2023-03-06T16:07:16.841Z,55.95
2023-03-06T16:09:44.330Z,55.77
2023-03-06T16:12:19.547Z,55.78
2023-03-06T16:14:47.970Z,55.88
2023-03-06T16:17:15.536Z,56.06
2023-03-06T16:19:43.297Z,55.83
2023-03-06T16:22:10.463Z,55.74
2023-03-06T16:24:37.982Z,56.11
2023-03-06T16:27:05.165Z,56.10
2023-03-06T16:29:32.213Z,56.13
2023-03-06T16:32:02.048Z,56.04
2023-03-06T16:34:29.191Z,56.27
2023-03-06T16:36:56.522Z,56.08
2023-03-06T16:39:24.319Z,56.10
2023-03-06T16:41:51.375Z,56.49
2023-03-06T16:44:18.679Z,56.02
2023-03-06T16:46:47.262Z,56.19
2023-03-06T16:49:19.748Z,56.50
2023-03-06T16:51:47.097Z,56.69
2023-03-06T16:54:14.293Z,56.79
2023-03-06T16:56:41.615Z,56.46
2023-03-06T16:59:08.669Z,56.84
2023-03-06T17:01:35.692Z,56.67
2023-03-06T17:04:02.757Z,57.02
2023-03-06T17:06:31.006Z,56.84
2023-03-06T17:09:01.036Z,56.98
2023-03-06T17:11:28.676Z,57.26
2023-03-06T17:13:55.631Z,57.25
2023-03-06T17:16:22.526Z,57.43
2023-03-06T17:18:49.797Z,57.36
2023-03-06T17:21:17.188Z,57.59
2023-03-06T17:23:44.795Z,57.65
2023-03-06T17:26:18.849Z,57.86
2023-03-06T17:28:46.508Z,58.05
2023-03-06T17:31:22.606Z,58.15
2023-03-06T17:33:51.456Z,58.23
2023-03-06T17:36:19.612Z,58.64
2023-03-06T17:38:47.033Z,58.59
2023-03-06T17:41:14.687Z,58.61
2023-03-06T17:43:42.074Z,58.80
2023-03-06T17:46:11.218Z,58.92
2023-03-06T17:48:38.504Z,58.93
2023-03-06T17:51:05.934Z,59.12
2023-03-06T17:53:33.577Z,59.23
2023-03-06T17:56:04.191Z,59.59
2023-03-06T17:58:31.574Z,59.56
2023-03-06T18:00:59.020Z,59.60
2023-03-06T18:03:26.209Z,59.75
2023-03-06T18:06:00.964Z,59.66
2023-03-06T18:08:27.938Z,59.95
2023-03-06T18:11:04.157Z,60.02
2023-03-06T18:13:32.201Z,60.29
2023-03-06T18:16:01.602Z,60.26
2023-03-06T18:18:29.642Z,60.40
2023-03-06T18:20:57.364Z,60.39
2023-03-06T18:23:24.829Z,60.71
2023-03-06T18:25:52.280Z,60.77
2023-03-06T18:28:19.622Z,60.82
2023-03-06T18:30:47.383Z,60.53
2023-03-06T18:33:15.305Z,60.73
2023-03-06T18:35:44.722Z,61.21
2023-03-06T18:38:17.191Z,61.21
2023-03-06T18:40:44.333Z,60.97
2023-03-06T18:43:11.186Z,61.15
2023-03-06T18:45:38.402Z,61.26
2023-03-06T18:48:05.871Z,61.70
2023-03-06T18:50:34.764Z,61.10
2023-03-06T18:53:01.572Z,61.40
2023-03-06T18:55:28.495Z,61.89
2023-03-06T18:57:55.308Z,62.09
2023-03-06T19:00:23.794Z,62.11
2023-03-06T19:02:51.116Z,62.07
2023-03-06T19:05:18.063Z,62.13
2023-03-06T19:07:44.924Z,62.62
2023-03-06T19:10:12.106Z,62.41
2023-03-06T19:12:38.945Z,62.55
2023-03-06T19:15:06.345Z,62.62
2023-03-06T19:17:33.418Z,62.88
2023-03-06T19:20:00.263Z,62.74
2023-03-06T19:22:27.109Z,63.24
2023-03-06T19:24:54.043Z,63.07
2023-03-06T19:27:21.508Z,63.15
2023-03-06T19:29:48.319Z,63.59
2023-03-06T19:32:15.322Z,63.18
2023-03-06T19:34:42.247Z,63.40
2023-03-06T19:37:09.063Z,63.94
2023-03-06T19:39:35.904Z,63.54
2023-03-06T19:42:04.686Z,63.27
2023-03-06T19:44:31.502Z,63.89
2023-03-06T19:46:58.300Z,63.68
2023-03-06T19:49:25.626Z,64.33
2023-03-06T19:51:52.492Z,63.75
2023-03-06T19:54:23.542Z,63.99
2023-03-06T19:56:50.749Z,63.98
2023-03-06T19:59:17.531Z,64.20
2023-03-06T20:01:44.419Z,64.00
2023-03-06T20:04:11.653Z,64.79
2023-03-06T20:06:39.021Z,64.33
2023-03-06T20:09:09.016Z,64.58
2023-03-06T20:11:37.653Z,64.81
2023-03-06T20:14:09.630Z,65.16
2023-03-06T20:16:37.885Z,65.36
2023-03-06T20:19:08.507Z,65.23
2023-03-06T20:21:43.017Z,65.31
2023-03-06T20:24:17.481Z,65.28
2023-03-06T20:26:49.727Z,65.14
2023-03-06T20:29:23.748Z,65.30
2023-03-06T20:32:02.254Z,65.44
2023-03-06T20:34:33.484Z,65.78
2023-03-06T20:37:01.779Z,66.01
2023-03-06T20:39:29.399Z,65.78
2023-03-06T20:42:00.478Z,66.36
2023-03-06T20:44:29.679Z,65.79
2023-03-06T20:46:56.831Z,66.33
2023-03-06T20:49:27.421Z,66.17
2023-03-06T20:51:57.034Z,66.14
2023-03-06T20:54:23.994Z,66.34
2023-03-06T20:56:51.522Z,66.57
2023-03-06T20:59:20.472Z,66.70
2023-03-06T21:01:49.301Z,66.79
2023-03-06T21:04:18.106Z,66.78
2023-03-06T21:06:47.486Z,67.15
2023-03-06T21:09:17.082Z,66.88
2023-03-06T21:11:44.300Z,67.38
2023-03-06T21:14:17.511Z,67.30
2023-03-06T21:16:44.925Z,66.88
2023-03-06T21:19:11.917Z,67.22
2023-03-06T21:21:38.860Z,67.27
2023-03-06T21:24:05.916Z,67.59
2023-03-06T21:26:34.188Z,67.58
2023-03-06T21:29:01.551Z,67.55
2023-03-06T21:31:29.623Z,67.86
2023-03-06T21:33:57.078Z,67.50
2023-03-06T21:36:24.807Z,67.94
2023-03-06T21:38:52.811Z,68.14
2023-03-06T21:41:24.914Z,68.05
2023-03-06T21:43:56.904Z,68.13
2023-03-06T21:46:24.302Z,68.44
2023-03-06T21:48:51.223Z,68.32
2023-03-06T21:51:19.726Z,68.54
2023-03-06T21:53:47.660Z,68.34
2023-03-06T21:56:17.232Z,68.75
2023-03-06T21:58:44.823Z,68.97
2023-03-06T22:01:13.989Z,68.84
2023-03-06T22:03:41.050Z,69.04
2023-03-06T22:06:12.608Z,68.58
2023-03-06T22:08:40.319Z,68.93
2023-03-06T22:11:09.750Z,69.09
2023-03-06T22:13:37.402Z,68.88
2023-03-06T22:16:04.884Z,69.12
2023-03-06T22:18:31.909Z,68.97
2023-03-06T22:20:58.839Z,69.50
2023-03-06T22:23:26.174Z,69.42
2023-03-06T22:25:53.052Z,69.07
2023-03-06T22:28:19.958Z,69.20
2023-03-06T22:30:46.815Z,69.65
2023-03-06T22:33:13.740Z,69.42
2023-03-06T22:35:40.587Z,69.51
2023-03-06T22:38:07.598Z,69.31
2023-03-06T22:40:34.432Z,69.87
2023-03-06T22:43:01.324Z,69.78
2023-03-06T22:45:28.201Z,69.84
2023-03-06T22:48:02.362Z,69.46
2023-03-06T22:50:36.041Z,69.83
2023-03-06T22:53:02.936Z,69.50
2023-03-06T22:55:29.770Z,69.73
2023-03-06T22:57:56.718Z,69.99
2023-03-06T23:00:23.527Z,70.10
2023-03-06T23:02:50.396Z,69.75
2023-03-06T23:05:17.297Z,70.02
2023-03-06T23:07:44.290Z,70.12
2023-03-06T23:10:11.442Z,70.17
2023-03-06T23:12:58.240Z,69.95
2023-03-06T23:15:45.139Z,70.03
2023-03-06T23:18:32.596Z,69.74
2023-03-06T23:21:20.846Z,69.64
2023-03-06T23:24:07.811Z,69.76
2023-03-06T23:26:35.103Z,70.18
2023-03-06T23:29:02.194Z,69.76
2023-03-06T23:31:30.207Z,70.02
2023-03-06T23:33:59.225Z,69.67
2023-03-06T23:36:26.727Z,69.75
2023-03-06T23:38:53.655Z,70.07
2023-03-06T23:41:21.617Z,69.99
2023-03-06T23:43:49.384Z,70.23
2023-03-06T23:46:16.915Z,69.77
2023-03-06T23:48:44.244Z,70.20
2023-03-06T23:51:19.520Z,70.28
2023-03-06T23:53:47.941Z,70.37
2023-03-06T23:56:15.472Z,70.42
2023-03-06T23:58:42.581Z,70.45
